DTTX/SFA METAR and TAF weather

Enter ICAO airport designator
Station Type Date Time Source
DTTX METAR 2020/01/18 21:00 UTC NOAA

DTTX 182100Z 00000KT CAVOK 09/08 Q1026


Station Type Date Time Source
DTTX Decoded METAR 2020/01/18 21:00 UTC NOAA

Sfax El-Maou, Tunisia (DTTX) 34-43N 010-41E 23M
Jan 18, 2020 - 04:00 PM EST / 2020.01.18 2100 UTC
Wind: Calm:0
Visibility: greater than 7 mile(s):0
Temperature: 48 F (9 C)
Dew Point: 46 F (8 C)
Relative Humidity: 93%
Pressure (altimeter): 30.30 in. Hg (1026 hPa)
ob: DTTX 182100Z 00000KT CAVOK 09/08 Q1026
cycle: 21

Station Type Date Time Source
DTTX TAF 2020/01/18 18:36 UTC NOAA

TAF DTTX 181700Z 1818/1918 20005KT CAVOK PROB30
TEMPO 1905/1907 4000 BR
BECMG 1910/1912 22015KT

Example: see airport list